Time;durP1;ratioP1;P1;durP2;ratioP2;P2;SDS_P1;SDS_P2;PMS_P1;PMS_P2;Temp;Humidity;BMP_temperature;BMP_pressure;BME280_temperature;BME280_humidity;BME280_pressure;Samples;Min_cycle;Max_cycle;Signal;HPM_P1;HPM_P2
2022/10/23 00:03:30;;;;;;;;;;;;;;;11.8;84.53906;101480.1;;;;-75
2022/10/23 00:08:30;;;;;;;;;;;;;;;11.78;84.34766;101465.2;;;;-73
2022/10/23 00:13:30;;;;;;;;;;;;;;;11.75;84.02051;101462.9;;;;-76
2022/10/23 00:16:03;;;;;;;10.4;4.9;;;;;;;;;;;;;-75
2022/10/23 00:18:30;;;;;;;;;;;;;;;11.74;83.74023;101470.7;;;;-74
2022/10/23 00:23:30;;;;;;;;;;;;;;;11.72;84.00293;101472.7;;;;-74
2022/10/23 00:28:30;;;;;;;;;;;;;;;11.75;84.00977;101474.5;;;;-73
2022/10/23 00:33:30;;;;;;;;;;;;;;;11.78;83.89258;101466.1;;;;-74
2022/10/23 00:38:30;;;;;;;;;;;;;;;11.81;83.89844;101467.1;;;;-75
2022/10/23 00:43:31;;;;;;;;;;;;;;;11.82;84.09961;101459;;;;-74
2022/10/23 00:46:04;;;;;;;10.5;4.9;;;;;;;;;;;;;-74
2022/10/23 00:48:30;;;;;;;;;;;;;;;11.81;84.1748;101457.1;;;;-74
2022/10/23 00:53:30;;;;;;;;;;;;;;;11.81;84.3418;101461.4;;;;-73
2022/10/23 00:58:30;;;;;;;;;;;;;;;11.81;84.46289;101459.5;;;;-74
2022/10/23 01:03:31;;;;;;;;;;;;;;;11.8;84.55078;101452.7;;;;-73
2022/10/23 01:08:32;;;;;;;;;;;;;;;11.79;85.29297;101448.3;;;;-74
2022/10/23 01:13:34;;;;;;;;;;;;;;;11.79;84.88086;101439.6;;;;-75
2022/10/23 01:16:08;;;;;;;13.4;5.9;;;;;;;;;;;;;-74
2022/10/23 01:18:34;;;;;;;;;;;;;;;11.78;84.56934;101439.4;;;;-75
2022/10/23 01:23:44;;;;;;;;;;;;;;;11.76;84.84082;101422.8;;;;-74
2022/10/23 01:28:33;;;;;;;;;;;;;;;11.74;84.53809;101417.8;;;;-73
2022/10/23 01:33:32;;;;;;;;;;;;;;;11.72;84.78906;101416;;;;-74
2022/10/23 01:38:31;;;;;;;;;;;;;;;11.7;85.11816;101413;;;;-75
2022/10/23 01:43:35;;;;;;;;;;;;;;;11.7;85.40625;101413.5;;;;-73
2022/10/23 01:46:08;;;;;;;12.1;5.4;;;;;;;;;;;;;-74
2022/10/23 01:48:31;;;;;;;;;;;;;;;11.7;85.62793;101412.6;;;;-74
2022/10/23 01:53:32;;;;;;;;;;;;;;;11.69;85.21484;101408.5;;;;-74
2022/10/23 01:58:31;;;;;;;;;;;;;;;11.7;85.47266;101409.5;;;;-74
2022/10/23 02:03:34;;;;;;;;;;;;;;;11.67;85.32324;101405.3;;;;-75
2022/10/23 02:08:30;;;;;;;;;;;;;;;11.67;85.42285;101402.4;;;;-74
2022/10/23 02:13:36;;;;;;;;;;;;;;;11.67;85.37891;101391.1;;;;-74
2022/10/23 02:16:10;;;;;;;12.8;6.4;;;;;;;;;;;;;-74
2022/10/23 02:18:39;;;;;;;;;;;;;;;11.65;85.68555;101377.8;;;;-75
2022/10/23 02:23:35;;;;;;;;;;;;;;;11.65;85.60742;101376.2;;;;-74
2022/10/23 02:28:34;;;;;;;;;;;;;;;11.65;85.81836;101375.8;;;;-72
2022/10/23 02:33:31;;;;;;;;;;;;;;;11.65;85.56348;101370.7;;;;-74
2022/10/23 02:38:35;;;;;;;;;;;;;;;11.64;85.49512;101370.7;;;;-74
2022/10/23 02:43:35;;;;;;;;;;;;;;;11.65;85.85156;101370.7;;;;-74
2022/10/23 02:46:12;;;;;;;14.2;6.7;;;;;;;;;;;;;-74
2022/10/23 02:48:35;;;;;;;;;;;;;;;11.66;85.69824;101362.4;;;;-73
2022/10/23 02:53:35;;;;;;;;;;;;;;;11.67;86.05469;101356.3;;;;-74
2022/10/23 02:58:31;;;;;;;;;;;;;;;11.67;85.84375;101346.5;;;;-73
2022/10/23 03:03:32;;;;;;;;;;;;;;;11.68;86.08887;101340.4;;;;-74
2022/10/23 03:08:30;;;;;;;;;;;;;;;11.66;86.10742;101337.5;;;;-73
2022/10/23 03:13:31;;;;;;;;;;;;;;;11.68;85.95605;101340.5;;;;-74
2022/10/23 03:16:09;;;;;;;15.5;6.8;;;;;;;;;;;;;-72
2022/10/23 03:18:30;;;;;;;;;;;;;;;11.67;86.20898;101331.6;;;;-74
2022/10/23 03:23:31;;;;;;;;;;;;;;;11.63;86.22266;101329.9;;;;-75
2022/10/23 03:28:30;;;;;;;;;;;;;;;11.61;86.26367;101318;;;;-74
2022/10/23 03:33:32;;;;;;;;;;;;;;;11.6;86.32813;101307.6;;;;-74
2022/10/23 03:38:30;;;;;;;;;;;;;;;11.58;86.45703;101312.3;;;;-74
2022/10/23 03:43:30;;;;;;;;;;;;;;;11.58;86.20215;101302.8;;;;-74
2022/10/23 03:46:11;;;;;;;11.3;6.5;;;;;;;;;;;;;-74
2022/10/23 03:48:31;;;;;;;;;;;;;;;11.57;86.86523;101309.1;;;;-74
2022/10/23 03:53:30;;;;;;;;;;;;;;;11.54;86.6582;101309.5;;;;-74
2022/10/23 03:58:34;;;;;;;;;;;;;;;11.53;86.32617;101294.2;;;;-74
2022/10/23 04:03:30;;;;;;;;;;;;;;;11.51;86.40918;101290.6;;;;-75
2022/10/23 04:08:31;;;;;;;;;;;;;;;11.48;86.02832;101283.7;;;;-75
2022/10/23 04:13:30;;;;;;;;;;;;;;;11.46;86.02441;101272.1;;;;-74
2022/10/23 04:16:10;;;;;;;11.6;6.1;;;;;;;;;;;;;-74
2022/10/23 04:18:30;;;;;;;;;;;;;;;11.42;86.07227;101260.2;;;;-73
2022/10/23 04:23:32;;;;;;;;;;;;;;;11.39;85.98926;101252;;;;-74
2022/10/23 04:28:30;;;;;;;;;;;;;;;11.38;86.10742;101244.2;;;;-74
2022/10/23 04:33:32;;;;;;;;;;;;;;;11.34;85.74707;101245.3;;;;-74
2022/10/23 04:38:31;;;;;;;;;;;;;;;11.31;85.78418;101236.8;;;;-73
2022/10/23 04:43:32;;;;;;;;;;;;;;;11.3;85.83887;101226;;;;-74
2022/10/23 04:46:11;;;;;;;10.3;5.8;;;;;;;;;;;;;-74
2022/10/23 04:48:30;;;;;;;;;;;;;;;11.29;85.68066;101218.9;;;;-74
2022/10/23 04:53:32;;;;;;;;;;;;;;;11.29;85.49414;101212.5;;;;-75
2022/10/23 04:58:40;;;;;;;;;;;;;;;11.26;85.62891;101206.4;;;;-74
2022/10/23 05:03:31;;;;;;;;;;;;;;;11.28;85.5127;101206.4;;;;-74
2022/10/23 05:08:30;;;;;;;;;;;;;;;11.27;85.4873;101202.4;;;;-74
2022/10/23 05:13:32;;;;;;;;;;;;;;;11.27;85.4248;101197.4;;;;-75
2022/10/23 05:16:11;;;;;;;11.1;5.2;;;;;;;;;;;;;-75
2022/10/23 05:18:33;;;;;;;;;;;;;;;11.27;85.32324;101202.6;;;;-76
2022/10/23 05:23:32;;;;;;;;;;;;;;;11.28;85.56836;101208.9;;;;-74
2022/10/23 05:28:30;;;;;;;;;;;;;;;11.29;85.51465;101198.9;;;;-73
2022/10/23 05:33:31;;;;;;;;;;;;;;;11.29;85.4707;101187;;;;-74
2022/10/23 05:38:33;;;;;;;;;;;;;;;11.3;85.33887;101188.7;;;;-75
2022/10/23 05:43:31;;;;;;;;;;;;;;;11.31;85.38574;101192.7;;;;-75
2022/10/23 05:46:12;;;;;;;12.1;5.1;;;;;;;;;;;;;-74
2022/10/23 05:48:30;;;;;;;;;;;;;;;11.32;85.86328;101189.7;;;;-74
2022/10/23 05:53:30;;;;;;;;;;;;;;;11.34;86.0459;101187.5;;;;-74
2022/10/23 05:58:30;;;;;;;;;;;;;;;11.36;86.31445;101184.5;;;;-74
2022/10/23 06:03:32;;;;;;;;;;;;;;;11.36;85.96973;101176.3;;;;-73
2022/10/23 06:08:30;;;;;;;;;;;;;;;11.38;86.19629;101170.1;;;;-75
2022/10/23 06:13:32;;;;;;;;;;;;;;;11.38;86.14063;101176.7;;;;-74
2022/10/23 06:16:19;;;;;;;12.8;4.8;;;;;;;;;;;;;-75
2022/10/23 06:18:30;;;;;;;;;;;;;;;11.43;86.4043;101175;;;;-74
2022/10/23 06:23:33;;;;;;;;;;;;;;;11.45;86.31055;101174.2;;;;-75
2022/10/23 06:28:30;;;;;;;;;;;;;;;11.46;86.69922;101173.2;;;;-76
2022/10/23 06:33:33;;;;;;;;;;;;;;;11.49;86.35059;101168.7;;;;-75
2022/10/23 06:38:35;;;;;;;;;;;;;;;11.55;86.32813;101161;;;;-75
2022/10/23 06:43:31;;;;;;;;;;;;;;;11.56;86.44238;101162.5;;;;-75
2022/10/23 06:46:13;;;;;;;11.2;4.5;;;;;;;;;;;;;-75
2022/10/23 06:48:30;;;;;;;;;;;;;;;11.6;86.6709;101163.1;;;;-75
2022/10/23 06:53:33;;;;;;;;;;;;;;;11.66;87.05859;101149.7;;;;-74
2022/10/23 06:58:30;;;;;;;;;;;;;;;11.74;86.87695;101139.3;;;;-74
2022/10/23 07:03:30;;;;;;;;;;;;;;;11.75;87.2334;101132;;;;-76
2022/10/23 07:08:30;;;;;;;;;;;;;;;11.81;87.63184;101133.7;;;;-74
2022/10/23 07:13:32;;;;;;;;;;;;;;;11.88;87.4248;101132.6;;;;-74
2022/10/23 07:16:18;;;;;;;8.1;3.8;;;;;;;;;;;;;-75
2022/10/23 07:18:30;;;;;;;;;;;;;;;11.93;87.69922;101147.8;;;;-74
2022/10/23 07:23:30;;;;;;;;;;;;;;;12.01;87.65137;101141.5;;;;-75
2022/10/23 07:28:32;;;;;;;;;;;;;;;12.06;87.37012;101131.4;;;;-73
2022/10/23 07:33:30;;;;;;;;;;;;;;;12.1;86.66992;101129.2;;;;-75
2022/10/23 07:38:32;;;;;;;;;;;;;;;12.13;86.49805;101107.6;;;;-73
2022/10/23 07:43:30;;;;;;;;;;;;;;;12.18;86.30762;101097.1;;;;-76
2022/10/23 07:46:15;;;;;;;10.2;3.9;;;;;;;;;;;;;-75
2022/10/23 07:48:30;;;;;;;;;;;;;;;12.23;86.2959;101103.5;;;;-74
2022/10/23 07:53:33;;;;;;;;;;;;;;;12.28;86.00586;101103.9;;;;-76
2022/10/23 07:58:31;;;;;;;;;;;;;;;12.34;85.79785;101105.9;;;;-74
2022/10/23 08:03:33;;;;;;;;;;;;;;;12.39;86.07324;101103.2;;;;-75
2022/10/23 08:08:30;;;;;;;;;;;;;;;12.46;86.46484;101089.7;;;;-74
2022/10/23 08:13:30;;;;;;;;;;;;;;;12.52;85.73242;101084.5;;;;-73
2022/10/23 08:16:16;;;;;;;6.8;3.5;;;;;;;;;;;;;-74
2022/10/23 08:18:30;;;;;;;;;;;;;;;12.6;86.41406;101091.4;;;;-74
2022/10/23 08:23:44;;;;;;;;;;;;;;;12.67;86.05078;101090.3;;;;-75
2022/10/23 08:28:30;;;;;;;;;;;;;;;12.73;86.07227;101083.1;;;;-76
2022/10/23 08:33:30;;;;;;;;;;;;;;;12.79;86.51758;101066.9;;;;-74
2022/10/23 08:38:30;;;;;;;;;;;;;;;12.85;85.95117;101060.8;;;;-74
2022/10/23 08:43:34;;;;;;;;;;;;;;;12.93;86.14551;101053.6;;;;-74
2022/10/23 08:46:19;;;;;;;6.9;3.5;;;;;;;;;;;;;-75
2022/10/23 08:48:33;;;;;;;;;;;;;;;13.01;86.34082;101053.1;;;;-74
2022/10/23 08:53:36;;;;;;;;;;;;;;;13.07;86.17383;101049.6;;;;-74
2022/10/23 08:58:34;;;;;;;;;;;;;;;13.14;86.36328;101040.4;;;;-74
2022/10/23 09:03:30;;;;;;;;;;;;;;;13.2;86.3877;101039.6;;;;-74
2022/10/23 09:08:34;;;;;;;;;;;;;;;13.29;86.82715;101029.1;;;;-74
2022/10/23 09:13:41;;;;;;;;;;;;;;;13.36;85.88379;101015.9;;;;-75
2022/10/23 09:16:20;;;;;;;9.6;3.7;;;;;;;;;;;;;-73
2022/10/23 09:18:30;;;;;;;;;;;;;;;13.42;86.34082;101011.1;;;;-75
2022/10/23 09:23:33;;;;;;;;;;;;;;;13.5;85.73242;101000.8;;;;-74
2022/10/23 09:28:34;;;;;;;;;;;;;;;13.57;85.59082;100992.4;;;;-74
2022/10/23 09:33:33;;;;;;;;;;;;;;;13.64;85.81641;100990.6;;;;-74
2022/10/23 09:38:34;;;;;;;;;;;;;;;13.68;85.29004;100979.5;;;;-75
2022/10/23 09:43:30;;;;;;;;;;;;;;;13.74;85.21484;100981.1;;;;-76
2022/10/23 09:46:23;;;;;;;7.8;3.4;;;;;;;;;;;;;-74
2022/10/23 09:48:33;;;;;;;;;;;;;;;13.82;84.91699;100973.7;;;;-78
2022/10/23 09:53:34;;;;;;;;;;;;;;;13.92;84.90332;100975.6;;;;-75
2022/10/23 09:58:33;;;;;;;;;;;;;;;13.98;84.45898;100972.6;;;;-77
2022/10/23 10:03:30;;;;;;;;;;;;;;;14.04;84.64941;100970.4;;;;-77
2022/10/23 10:08:45;;;;;;;;;;;;;;;14.11;84.52734;100976.7;;;;-76
2022/10/23 10:13:38;;;;;;;;;;;;;;;14.16;84.65918;100965.6;;;;-76
2022/10/23 10:16:25;;;;;;;6.4;3.5;;;;;;;;;;;;;-74
2022/10/23 10:18:34;;;;;;;;;;;;;;;14.2;84.62109;100954.2;;;;-75
2022/10/23 10:23:38;;;;;;;;;;;;;;;14.24;84.23047;100937.7;;;;-74
2022/10/23 10:28:43;;;;;;;;;;;;;;;14.29;84.22754;100938.5;;;;-74
2022/10/23 10:33:35;;;;;;;;;;;;;;;14.3;84.27441;100924.3;;;;-74
2022/10/23 10:38:40;;;;;;;;;;;;;;;14.32;84.24414;100930.2;;;;-75
2022/10/23 10:43:41;;;;;;;;;;;;;;;14.34;84.0918;100929.8;;;;-74
2022/10/23 10:46:26;;;;;;;7.6;3.3;;;;;;;;;;;;;-74
2022/10/23 10:48:41;;;;;;;;;;;;;;;14.35;83.78125;100931.2;;;;-74
2022/10/23 10:53:34;;;;;;;;;;;;;;;14.36;84.00781;100916.8;;;;-76
2022/10/23 10:58:34;;;;;;;;;;;;;;;14.37;83.78516;100898.3;;;;-75
2022/10/23 11:03:37;;;;;;;;;;;;;;;14.42;83.61621;100875.9;;;;-78
2022/10/23 11:08:43;;;;;;;;;;;;;;;14.47;83.61426;100868.3;;;;-77
2022/10/23 11:13:32;;;;;;;;;;;;;;;14.54;83.31543;100856.2;;;;-77
2022/10/23 11:16:26;;;;;;;6.6;3.1;;;;;;;;;;;;;-75
2022/10/23 11:18:32;;;;;;;;;;;;;;;14.59;83.02441;100836.3;;;;-79
2022/10/23 11:23:43;;;;;;;;;;;;;;;14.66;83.12793;100821.8;;;;-76
2022/10/23 11:28:40;;;;;;;;;;;;;;;14.72;82.83691;100803.6;;;;-76
2022/10/23 11:33:47;;;;;;;;;;;;;;;14.8;83.26367;100796.1;;;;-76
2022/10/23 11:38:33;;;;;;;;;;;;;;;14.88;82.81152;100773;;;;-76
2022/10/23 11:43:35;;;;;;;;;;;;;;;14.93;82.60742;100762.8;;;;-76
2022/10/23 11:46:36;;;;;;;6;2.5;;;;;;;;;;;;;-78
2022/10/23 11:48:39;;;;;;;;;;;;;;;15.04;82.61719;100756.6;;;;-77
2022/10/23 11:53:39;;;;;;;;;;;;;;;15.07;82.66699;100744.6;;;;-76
2022/10/23 11:58:32;;;;;;;;;;;;;;;15.1;82.28125;100738.1;;;;-77
2022/10/23 12:03:37;;;;;;;;;;;;;;;15.12;82.65332;100742.7;;;;-75
2022/10/23 12:08:31;;;;;;;;;;;;;;;15.17;82.43945;100730.5;;;;-76
2022/10/23 12:13:46;;;;;;;;;;;;;;;15.22;82.5166;100704;;;;-77
2022/10/23 12:16:37;;;;;;;4.1;2.4;;;;;;;;;;;;;-77
2022/10/23 12:18:30;;;;;;;;;;;;;;;15.3;82.35156;100698.5;;;;-76
2022/10/23 12:23:45;;;;;;;;;;;;;;;15.35;82.11719;100686.8;;;;-75
2022/10/23 12:28:35;;;;;;;;;;;;;;;15.42;81.98242;100697.4;;;;-75
2022/10/23 12:33:36;;;;;;;;;;;;;;;15.49;82.11914;100684.1;;;;-75
2022/10/23 12:38:30;;;;;;;;;;;;;;;15.53;82.13867;100674.5;;;;-76
2022/10/23 12:43:34;;;;;;;;;;;;;;;15.58;82.18164;100673;;;;-75
2022/10/23 12:46:43;;;;;;;4.3;2.4;;;;;;;;;;;;;-75
2022/10/23 12:48:30;;;;;;;;;;;;;;;15.61;82.20898;100655.8;;;;-75
2022/10/23 12:53:32;;;;;;;;;;;;;;;15.63;81.88867;100641.8;;;;-74
2022/10/23 12:58:31;;;;;;;;;;;;;;;15.64;81.77832;100635.4;;;;-75
2022/10/23 13:03:32;;;;;;;;;;;;;;;15.65;82.05957;100633.4;;;;-76
2022/10/23 13:08:32;;;;;;;;;;;;;;;15.68;82.06445;100624.8;;;;-76
2022/10/23 13:13:30;;;;;;;;;;;;;;;15.71;81.94824;100623.3;;;;-73
2022/10/23 13:16:32;;;;;;;6.2;2.8;;;;;;;;;;;;;-73
2022/10/23 13:18:43;;;;;;;;;;;;;;;15.74;82.36719;100609.4;;;;-75
2022/10/23 13:23:34;;;;;;;;;;;;;;;15.84;82.18457;100601.1;;;;-74
2022/10/23 13:28:31;;;;;;;;;;;;;;;15.93;82.18848;100584;;;;-74
2022/10/23 13:33:34;;;;;;;;;;;;;;;16.07;81.8457;100572.3;;;;-74
2022/10/23 13:38:38;;;;;;;;;;;;;;;16.13;81.78125;100566.2;;;;-74
2022/10/23 13:43:30;;;;;;;;;;;;;;;16.21;81.79395;100545.1;;;;-74
2022/10/23 13:46:31;;;;;;;4.7;2.5;;;;;;;;;;;;;-74
2022/10/23 13:48:30;;;;;;;;;;;;;;;16.28;81.32617;100536.1;;;;-74
2022/10/23 13:53:30;;;;;;;;;;;;;;;16.33;81.15527;100529.5;;;;-74
2022/10/23 13:58:31;;;;;;;;;;;;;;;16.35;81.27051;100519.9;;;;-74
2022/10/23 14:03:30;;;;;;;;;;;;;;;16.39;81.13086;100518.4;;;;-74
2022/10/23 14:08:30;;;;;;;;;;;;;;;16.48;80.92578;100519.4;;;;-75
2022/10/23 14:13:30;;;;;;;;;;;;;;;16.55;80.72363;100515.5;;;;-73
2022/10/23 14:16:33;;;;;;;6.1;2.3;;;;;;;;;;;;;-74
2022/10/23 14:18:30;;;;;;;;;;;;;;;16.64;80.62793;100502.7;;;;-73
2022/10/23 14:23:30;;;;;;;;;;;;;;;16.68;80.7373;100499.8;;;;-73
2022/10/23 14:28:30;;;;;;;;;;;;;;;16.67;80.47754;100501.2;;;;-74
2022/10/23 14:33:30;;;;;;;;;;;;;;;16.68;80.24414;100507.7;;;;-73
2022/10/23 14:38:30;;;;;;;;;;;;;;;16.65;80.54004;100499.2;;;;-72
2022/10/23 14:43:30;;;;;;;;;;;;;;;16.62;80.27734;100503.5;;;;-72
2022/10/23 14:46:37;;;;;;;5.2;2.3;;;;;;;;;;;;;-74
2022/10/23 14:48:30;;;;;;;;;;;;;;;16.62;80.32031;100492.1;;;;-74
2022/10/23 14:53:30;;;;;;;;;;;;;;;16.59;80.37109;100483;;;;-73
2022/10/23 14:58:30;;;;;;;;;;;;;;;16.62;80.50195;100472.4;;;;-73
2022/10/23 15:03:30;;;;;;;;;;;;;;;16.61;80.76953;100470.3;;;;-73
2022/10/23 15:08:30;;;;;;;;;;;;;;;16.6;80.76563;100459.9;;;;-74
2022/10/23 15:13:32;;;;;;;;;;;;;;;16.58;80.5625;100453.4;;;;-74
2022/10/23 15:16:40;;;;;;;6.6;2.4;;;;;;;;;;;;;-75
2022/10/23 15:18:31;;;;;;;;;;;;;;;16.56;80.66992;100439.8;;;;-74
2022/10/23 15:23:30;;;;;;;;;;;;;;;16.53;80.68652;100428.9;;;;-74
2022/10/23 15:28:31;;;;;;;;;;;;;;;16.49;80.86914;100437.9;;;;-72
2022/10/23 15:33:30;;;;;;;;;;;;;;;16.45;82.02832;100434.2;;;;-74
2022/10/23 15:38:38;;;;;;;;;;;;;;;16.4;81.37012;100418.6;;;;-74
2022/10/23 15:43:30;;;;;;;;;;;;;;;16.35;81.86426;100416.5;;;;-74
2022/10/23 15:46:39;;;;;;;8;2.4;;;;;;;;;;;;;-74
2022/10/23 15:48:30;;;;;;;;;;;;;;;16.31;82.04785;100409.8;;;;-74
2022/10/23 15:53:30;;;;;;;;;;;;;;;16.25;81.8584;100392.8;;;;-73
2022/10/23 15:58:30;;;;;;;;;;;;;;;16.23;81.73047;100395.2;;;;-74
2022/10/23 16:03:31;;;;;;;;;;;;;;;16.19;82.18164;100392.8;;;;-76
2022/10/23 16:08:30;;;;;;;;;;;;;;;16.11;82.41406;100384.4;;;;-74
2022/10/23 16:13:30;;;;;;;;;;;;;;;16.06;82.56055;100374.1;;;;-74
2022/10/23 16:16:41;;;;;;;6.1;2.5;;;;;;;;;;;;;-73
2022/10/23 16:18:30;;;;;;;;;;;;;;;16.02;82.67773;100373.3;;;;-75
2022/10/23 16:23:32;;;;;;;;;;;;;;;15.97;83.02734;100370.8;;;;-74
2022/10/23 16:28:30;;;;;;;;;;;;;;;15.92;83.15137;100365;;;;-74
2022/10/23 16:33:30;;;;;;;;;;;;;;;15.87;83.23242;100364.7;;;;-75
2022/10/23 16:38:33;;;;;;;;;;;;;;;15.83;83.44531;100357.9;;;;-72
2022/10/23 16:43:30;;;;;;;;;;;;;;;15.77;83.57129;100344.8;;;;-72
2022/10/23 16:46:43;;;;;;;5.5;2.6;;;;;;;;;;;;;-71
2022/10/23 16:48:31;;;;;;;;;;;;;;;15.74;83.57617;100340.4;;;;-73
2022/10/23 16:53:32;;;;;;;;;;;;;;;15.68;83.89941;100342.8;;;;-72
2022/10/23 16:58:30;;;;;;;;;;;;;;;15.66;83.64063;100353;;;;-68
2022/10/23 17:03:31;;;;;;;;;;;;;;;15.61;84.16699;100341.5;;;;-71
2022/10/23 17:08:30;;;;;;;;;;;;;;;15.55;84.17676;100323.2;;;;-70
2022/10/23 17:13:30;;;;;;;;;;;;;;;15.48;84.65625;100329.5;;;;-71
2022/10/23 17:16:46;;;;;;;7.1;2.8;;;;;;;;;;;;;-71
2022/10/23 17:18:30;;;;;;;;;;;;;;;15.43;84.55859;100329.1;;;;-71
2022/10/23 17:23:32;;;;;;;;;;;;;;;15.36;84.99121;100323.8;;;;-70
2022/10/23 17:28:30;;;;;;;;;;;;;;;15.31;85.32715;100324.6;;;;-71
2022/10/23 17:33:32;;;;;;;;;;;;;;;15.26;85.31641;100322.1;;;;-71
2022/10/23 17:38:30;;;;;;;;;;;;;;;15.22;85.36523;100324.8;;;;-71
2022/10/23 17:43:31;;;;;;;;;;;;;;;15.18;85.54883;100324.5;;;;-71
2022/10/23 17:46:46;;;;;;;7.6;2.9;;;;;;;;;;;;;-70
2022/10/23 17:48:30;;;;;;;;;;;;;;;15.14;85.67383;100326.3;;;;-73
2022/10/23 17:53:32;;;;;;;;;;;;;;;15.09;85.58691;100328.9;;;;-75
2022/10/23 17:58:29;;;;;;;;;;;;;;;15.07;85.59277;100328.5;;;;-74
2022/10/23 18:03:33;;;;;;;;;;;;;;;15.04;85.63184;100315.2;;;;-74
2022/10/23 18:08:29;;;;;;;;;;;;;;;15.04;85.66504;100309.8;;;;-75
2022/10/23 18:13:30;;;;;;;;;;;;;;;15.06;85.93652;100309.8;;;;-74
2022/10/23 18:16:48;;;;;;;6.2;3;;;;;;;;;;;;;-75
2022/10/23 18:18:30;;;;;;;;;;;;;;;15.07;86.0498;100312.4;;;;-75
2022/10/23 18:23:31;;;;;;;;;;;;;;;15.08;86.00684;100309.6;;;;-74
2022/10/23 18:28:30;;;;;;;;;;;;;;;15.08;86.27637;100301.1;;;;-74
2022/10/23 18:33:31;;;;;;;;;;;;;;;15.1;86.27832;100295.7;;;;-74
2022/10/23 18:38:30;;;;;;;;;;;;;;;15.1;86.16895;100286.9;;;;-75
2022/10/23 18:43:32;;;;;;;;;;;;;;;15.14;86.49902;100289.2;;;;-74
2022/10/23 18:46:50;;;;;;;7.9;3;;;;;;;;;;;;;-75
2022/10/23 18:48:29;;;;;;;;;;;;;;;15.15;86.41016;100288.5;;;;-74
2022/10/23 18:53:32;;;;;;;;;;;;;;;15.17;86.57227;100289.2;;;;-73
2022/10/23 18:58:30;;;;;;;;;;;;;;;15.22;86.92676;100307;;;;-74
2022/10/23 19:03:31;;;;;;;;;;;;;;;15.23;86.77539;100297.6;;;;-75
2022/10/23 19:08:34;;;;;;;;;;;;;;;15.26;86.83691;100313.6;;;;-74
2022/10/23 19:13:31;;;;;;;;;;;;;;;15.27;86.94824;100347.1;;;;-74
2022/10/23 19:17:00;;;;;;;6.7;3;;;;;;;;;;;;;-75
2022/10/23 19:18:36;;;;;;;;;;;;;;;15.3;87.41113;100368.9;;;;-75
2022/10/23 19:23:30;;;;;;;;;;;;;;;15.29;87.58887;100385;;;;-76
2022/10/23 19:28:30;;;;;;;;;;;;;;;15.31;87.95996;100410.3;;;;-75
2022/10/23 19:33:31;;;;;;;;;;;;;;;15.37;89.06641;100427.8;;;;-76
2022/10/23 19:38:30;;;;;;;;;;;;;;;15.38;90.01855;100438;;;;-77
2022/10/23 19:43:33;;;;;;;;;;;;;;;15.39;90.59863;100403.2;;;;-77
2022/10/23 19:46:52;;;;;;;7;2.8;;;;;;;;;;;;;-76
2022/10/23 19:48:30;;;;;;;;;;;;;;;15.34;90.60059;100394.7;;;;-75
2022/10/23 19:53:30;;;;;;;;;;;;;;;15.26;90.81934;100341.9;;;;-76
2022/10/23 19:58:30;;;;;;;;;;;;;;;15.18;90.3125;100302.8;;;;-76
2022/10/23 20:03:30;;;;;;;;;;;;;;;15.12;89.84277;100333.7;;;;-77
2022/10/23 20:08:30;;;;;;;;;;;;;;;15.05;89.85156;100333.8;;;;-77
2022/10/23 20:13:31;;;;;;;;;;;;;;;14.95;89.59375;100347.1;;;;-76
2022/10/23 20:16:54;;;;;;;3.5;1.7;;;;;;;;;;;;;-75
2022/10/23 20:18:30;;;;;;;;;;;;;;;14.83;89.27051;100365.1;;;;-76
2022/10/23 20:23:30;;;;;;;;;;;;;;;14.72;89.51563;100369.8;;;;-75
2022/10/23 20:28:29;;;;;;;;;;;;;;;14.6;89.46777;100374.1;;;;-77
2022/10/23 20:33:30;;;;;;;;;;;;;;;14.48;89.2793;100370.9;;;;-77
2022/10/23 20:38:30;;;;;;;;;;;;;;;14.38;89.21387;100374;;;;-76
2022/10/23 20:43:31;;;;;;;;;;;;;;;14.28;89.37012;100379.6;;;;-76
2022/10/23 20:46:58;;;;;;;4.4;1.9;;;;;;;;;;;;;-77
2022/10/23 20:48:34;;;;;;;;;;;;;;;14.22;88.76953;100384.6;;;;-76
2022/10/23 20:53:29;;;;;;;;;;;;;;;14.12;88.31543;100385.5;;;;-74
2022/10/23 20:58:30;;;;;;;;;;;;;;;14.03;88.45313;100381.9;;;;-75
2022/10/23 21:03:30;;;;;;;;;;;;;;;13.95;88.01367;100379.8;;;;-76
2022/10/23 21:08:30;;;;;;;;;;;;;;;13.87;88.15332;100387.5;;;;-79
2022/10/23 21:13:30;;;;;;;;;;;;;;;13.78;87.8457;100396.5;;;;-75
2022/10/23 21:16:57;;;;;;;4.4;1.7;;;;;;;;;;;;;-75
2022/10/23 21:18:33;;;;;;;;;;;;;;;13.68;87.7832;100393.6;;;;-75
2022/10/23 21:23:34;;;;;;;;;;;;;;;13.6;87.7666;100391.6;;;;-75
2022/10/23 21:28:30;;;;;;;;;;;;;;;13.53;87.66113;100382.3;;;;-75
2022/10/23 21:33:30;;;;;;;;;;;;;;;13.44;87.80078;100379.4;;;;-79
2022/10/23 21:38:29;;;;;;;;;;;;;;;13.34;87.48047;100370.7;;;;-75
2022/10/23 21:43:30;;;;;;;;;;;;;;;13.29;87.59375;100367.6;;;;-75
2022/10/23 21:46:58;;;;;;;3.4;1.6;;;;;;;;;;;;;-75
2022/10/23 21:48:30;;;;;;;;;;;;;;;13.24;87.49414;100369.3;;;;-76
2022/10/23 21:53:31;;;;;;;;;;;;;;;13.22;87.90137;100371.2;;;;-74
2022/10/23 21:58:32;;;;;;;;;;;;;;;13.21;87.91113;100364.6;;;;-76
2022/10/23 22:03:32;;;;;;;;;;;;;;;13.17;88.24805;100355.3;;;;-75
2022/10/23 22:08:30;;;;;;;;;;;;;;;13.13;88.25;100354;;;;-74
2022/10/23 22:13:30;;;;;;;;;;;;;;;13.18;89.22656;100354;;;;-76
2022/10/23 22:17:01;;;;;;;4.5;1.8;;;;;;;;;;;;;-74
2022/10/23 22:18:30;;;;;;;;;;;;;;;13.2;89.19727;100353.9;;;;-75
2022/10/23 22:23:30;;;;;;;;;;;;;;;13.24;89.89453;100351.6;;;;-75
2022/10/23 22:28:29;;;;;;;;;;;;;;;13.25;89.70605;100349.7;;;;-75
2022/10/23 22:33:30;;;;;;;;;;;;;;;13.26;89.95215;100351.2;;;;-74
2022/10/23 22:38:30;;;;;;;;;;;;;;;13.3;90.27246;100355.1;;;;-75
2022/10/23 22:43:33;;;;;;;;;;;;;;;13.37;91.13086;100362;;;;-74
2022/10/23 22:47:01;;;;;;;6.2;1.7;;;;;;;;;;;;;-74
2022/10/23 22:48:31;;;;;;;;;;;;;;;13.39;90.58887;100362.8;;;;-75
2022/10/23 22:53:31;;;;;;;;;;;;;;;13.43;90.64063;100356.7;;;;-74
2022/10/23 22:58:31;;;;;;;;;;;;;;;13.49;90.97754;100355.5;;;;-76
2022/10/23 23:03:29;;;;;;;;;;;;;;;13.51;90.95703;100352.4;;;;-74
2022/10/23 23:08:30;;;;;;;;;;;;;;;13.54;91.02246;100345.9;;;;-75
2022/10/23 23:13:31;;;;;;;;;;;;;;;13.55;90.18945;100342.7;;;;-75
2022/10/23 23:17:04;;;;;;;5.6;1.4;;;;;;;;;;;;;-74
2022/10/23 23:18:30;;;;;;;;;;;;;;;13.56;90.02441;100347.8;;;;-74
2022/10/23 23:23:30;;;;;;;;;;;;;;;13.55;89.88965;100332.4;;;;-74
2022/10/23 23:28:29;;;;;;;;;;;;;;;13.53;89.1748;100324.8;;;;-75
2022/10/23 23:33:29;;;;;;;;;;;;;;;13.52;89.59473;100333;;;;-75
2022/10/23 23:38:30;;;;;;;;;;;;;;;13.46;89.4707;100328.7;;;;-74
2022/10/23 23:43:29;;;;;;;;;;;;;;;13.45;89.51367;100322.3;;;;-75
2022/10/23 23:47:03;;;;;;;5;1.3;;;;;;;;;;;;;-75
2022/10/23 23:48:29;;;;;;;;;;;;;;;13.47;89.43066;100327.8;;;;-74
2022/10/23 23:53:32;;;;;;;;;;;;;;;13.49;89.24512;100322.1;;;;-75
2022/10/23 23:58:29;;;;;;;;;;;;;;;13.5;89.17871;100313.9;;;;-74
